sensor_id;sensor_type;location;lat;lon;timestamp;temperature;humidity
14519;DHT22;7346;50.846;4.388;2022-10-19T00:01:56;14.00;99.90
14519;DHT22;7346;50.846;4.388;2022-10-19T00:04:29;14.10;99.90
14519;DHT22;7346;50.846;4.388;2022-10-19T00:06:56;14.10;99.90
14519;DHT22;7346;50.846;4.388;2022-10-19T00:09:23;14.20;99.90
14519;DHT22;7346;50.846;4.388;2022-10-19T00:11:50;14.20;99.90
14519;DHT22;7346;50.846;4.388;2022-10-19T00:14:19;14.10;99.90
14519;DHT22;7346;50.846;4.388;2022-10-19T00:16:51;14.00;99.90
14519;DHT22;7346;50.846;4.388;2022-10-19T00:19:22;14.00;99.90
14519;DHT22;7346;50.846;4.388;2022-10-19T00:21:49;14.10;99.90
14519;DHT22;7346;50.846;4.388;2022-10-19T00:24:16;14.00;99.90
14519;DHT22;7346;50.846;4.388;2022-10-19T00:26:43;14.00;99.90
14519;DHT22;7346;50.846;4.388;2022-10-19T00:29:12;14.10;99.90
14519;DHT22;7346;50.846;4.388;2022-10-19T00:31:39;14.10;99.90
14519;DHT22;7346;50.846;4.388;2022-10-19T00:34:07;14.10;99.90
14519;DHT22;7346;50.846;4.388;2022-10-19T00:36:36;14.20;99.90
14519;DHT22;7346;50.846;4.388;2022-10-19T00:39:06;14.10;99.90
14519;DHT22;7346;50.846;4.388;2022-10-19T00:41:34;14.10;99.90
14519;DHT22;7346;50.846;4.388;2022-10-19T00:44:03;14.00;99.90
14519;DHT22;7346;50.846;4.388;2022-10-19T00:46:33;14.00;99.90
14519;DHT22;7346;50.846;4.388;2022-10-19T00:49:05;13.90;99.90
14519;DHT22;7346;50.846;4.388;2022-10-19T00:51:39;13.90;99.90
14519;DHT22;7346;50.846;4.388;2022-10-19T00:54:07;13.90;99.90
14519;DHT22;7346;50.846;4.388;2022-10-19T00:56:38;13.80;99.90
14519;DHT22;7346;50.846;4.388;2022-10-19T00:59:05;13.70;99.90
14519;DHT22;7346;50.846;4.388;2022-10-19T01:01:34;13.70;99.90
14519;DHT22;7346;50.846;4.388;2022-10-19T01:04:03;13.70;99.90
14519;DHT22;7346;50.846;4.388;2022-10-19T01:06:30;13.60;99.90
14519;DHT22;7346;50.846;4.388;2022-10-19T01:08:59;13.60;99.90
14519;DHT22;7346;50.846;4.388;2022-10-19T01:11:34;13.60;99.90
14519;DHT22;7346;50.846;4.388;2022-10-19T01:14:12;13.60;99.90
14519;DHT22;7346;50.846;4.388;2022-10-19T01:16:56;13.60;99.90
14519;DHT22;7346;50.846;4.388;2022-10-19T01:22:55;13.70;99.90
14519;DHT22;7346;50.846;4.388;2022-10-19T01:25:38;13.60;99.90
14519;DHT22;7346;50.846;4.388;2022-10-19T01:28:23;13.60;99.90
14519;DHT22;7346;50.846;4.388;2022-10-19T01:30:58;13.60;99.90
14519;DHT22;7346;50.846;4.388;2022-10-19T01:33:36;13.60;99.90
14519;DHT22;7346;50.846;4.388;2022-10-19T01:36:11;13.60;99.90
14519;DHT22;7346;50.846;4.388;2022-10-19T01:38:49;13.50;99.90
14519;DHT22;7346;50.846;4.388;2022-10-19T01:41:20;13.50;99.90
14519;DHT22;7346;50.846;4.388;2022-10-19T01:43:57;13.50;99.90
14519;DHT22;7346;50.846;4.388;2022-10-19T01:46:31;13.50;99.90
14519;DHT22;7346;50.846;4.388;2022-10-19T01:49:03;13.40;99.90
14519;DHT22;7346;50.846;4.388;2022-10-19T01:51:47;13.40;99.90
14519;DHT22;7346;50.846;4.388;2022-10-19T01:54:16;13.20;99.90
14519;DHT22;7346;50.846;4.388;2022-10-19T01:56:46;13.20;99.90
14519;DHT22;7346;50.846;4.388;2022-10-19T01:59:15;13.20;99.90
14519;DHT22;7346;50.846;4.388;2022-10-19T02:01:46;13.10;99.90
14519;DHT22;7346;50.846;4.388;2022-10-19T02:04:17;13.00;99.90
14519;DHT22;7346;50.846;4.388;2022-10-19T02:06:45;13.00;99.90
14519;DHT22;7346;50.846;4.388;2022-10-19T02:09:12;12.90;99.90
14519;DHT22;7346;50.846;4.388;2022-10-19T02:11:43;12.90;99.90
14519;DHT22;7346;50.846;4.388;2022-10-19T02:14:13;12.90;99.90
14519;DHT22;7346;50.846;4.388;2022-10-19T02:16:48;12.80;99.90
14519;DHT22;7346;50.846;4.388;2022-10-19T02:19:18;12.80;99.90
14519;DHT22;7346;50.846;4.388;2022-10-19T02:21:46;12.80;99.90
14519;DHT22;7346;50.846;4.388;2022-10-19T02:24:13;12.70;99.90
14519;DHT22;7346;50.846;4.388;2022-10-19T02:26:40;12.70;99.90
14519;DHT22;7346;50.846;4.388;2022-10-19T02:29:08;12.70;99.90
14519;DHT22;7346;50.846;4.388;2022-10-19T02:31:35;12.70;99.90
14519;DHT22;7346;50.846;4.388;2022-10-19T02:34:04;12.70;99.90
14519;DHT22;7346;50.846;4.388;2022-10-19T02:36:31;12.60;99.90
14519;DHT22;7346;50.846;4.388;2022-10-19T02:38:58;12.70;99.90
14519;DHT22;7346;50.846;4.388;2022-10-19T02:41:29;12.70;99.90
14519;DHT22;7346;50.846;4.388;2022-10-19T02:44:01;12.80;99.90
14519;DHT22;7346;50.846;4.388;2022-10-19T02:46:34;12.70;99.90
14519;DHT22;7346;50.846;4.388;2022-10-19T02:49:05;12.60;99.90
14519;DHT22;7346;50.846;4.388;2022-10-19T02:51:34;12.60;99.90
14519;DHT22;7346;50.846;4.388;2022-10-19T02:54:03;12.70;99.90
14519;DHT22;7346;50.846;4.388;2022-10-19T02:56:30;12.60;99.90
14519;DHT22;7346;50.846;4.388;2022-10-19T02:58:58;12.70;99.90
14519;DHT22;7346;50.846;4.388;2022-10-19T03:01:25;12.70;99.90
14519;DHT22;7346;50.846;4.388;2022-10-19T03:03:52;12.60;99.90
14519;DHT22;7346;50.846;4.388;2022-10-19T03:06:20;12.60;99.90
14519;DHT22;7346;50.846;4.388;2022-10-19T03:08:47;12.60;99.90
14519;DHT22;7346;50.846;4.388;2022-10-19T03:11:14;12.50;99.90
14519;DHT22;7346;50.846;4.388;2022-10-19T03:13:41;12.40;99.90
14519;DHT22;7346;50.846;4.388;2022-10-19T03:16:09;12.40;99.90
14519;DHT22;7346;50.846;4.388;2022-10-19T03:18:37;12.30;99.90
14519;DHT22;7346;50.846;4.388;2022-10-19T03:21:06;12.30;99.90
14519;DHT22;7346;50.846;4.388;2022-10-19T03:23:34;12.20;99.90
14519;DHT22;7346;50.846;4.388;2022-10-19T03:26:01;12.40;99.90
14519;DHT22;7346;50.846;4.388;2022-10-19T03:28:28;12.30;99.90
14519;DHT22;7346;50.846;4.388;2022-10-19T03:30:56;12.30;99.90
14519;DHT22;7346;50.846;4.388;2022-10-19T03:33:23;12.30;99.90
14519;DHT22;7346;50.846;4.388;2022-10-19T03:35:50;12.20;99.90
14519;DHT22;7346;50.846;4.388;2022-10-19T03:38:16;12.20;99.90
14519;DHT22;7346;50.846;4.388;2022-10-19T03:40:45;12.20;99.90
14519;DHT22;7346;50.846;4.388;2022-10-19T03:43:12;12.10;99.90
14519;DHT22;7346;50.846;4.388;2022-10-19T03:45:39;12.10;99.90
14519;DHT22;7346;50.846;4.388;2022-10-19T03:48:06;12.00;99.90
14519;DHT22;7346;50.846;4.388;2022-10-19T03:50:33;12.00;99.90
14519;DHT22;7346;50.846;4.388;2022-10-19T03:53:00;12.00;99.90
14519;DHT22;7346;50.846;4.388;2022-10-19T03:55:29;11.90;99.90
14519;DHT22;7346;50.846;4.388;2022-10-19T03:58:00;11.90;99.90
14519;DHT22;7346;50.846;4.388;2022-10-19T04:00:27;11.80;99.90
14519;DHT22;7346;50.846;4.388;2022-10-19T04:02:54;11.90;99.90
14519;DHT22;7346;50.846;4.388;2022-10-19T04:05:21;11.80;99.90
14519;DHT22;7346;50.846;4.388;2022-10-19T04:07:48;11.80;99.90
14519;DHT22;7346;50.846;4.388;2022-10-19T04:10:15;11.80;99.90
14519;DHT22;7346;50.846;4.388;2022-10-19T04:12:42;11.90;99.90
14519;DHT22;7346;50.846;4.388;2022-10-19T04:15:10;11.90;99.90
14519;DHT22;7346;50.846;4.388;2022-10-19T04:17:38;12.00;99.90
14519;DHT22;7346;50.846;4.388;2022-10-19T04:20:05;12.00;99.90
14519;DHT22;7346;50.846;4.388;2022-10-19T04:22:33;12.10;99.90
14519;DHT22;7346;50.846;4.388;2022-10-19T04:24:59;12.10;99.90
14519;DHT22;7346;50.846;4.388;2022-10-19T04:27:26;12.10;99.90
14519;DHT22;7346;50.846;4.388;2022-10-19T04:29:53;12.10;99.90
14519;DHT22;7346;50.846;4.388;2022-10-19T04:32:22;12.10;99.90
14519;DHT22;7346;50.846;4.388;2022-10-19T04:34:49;12.10;99.90
14519;DHT22;7346;50.846;4.388;2022-10-19T04:37:15;12.10;99.90
14519;DHT22;7346;50.846;4.388;2022-10-19T04:39:42;12.10;99.90
14519;DHT22;7346;50.846;4.388;2022-10-19T04:42:10;12.10;99.90
14519;DHT22;7346;50.846;4.388;2022-10-19T04:44:37;12.00;99.90
14519;DHT22;7346;50.846;4.388;2022-10-19T04:47:04;12.10;99.90
14519;DHT22;7346;50.846;4.388;2022-10-19T04:49:32;12.10;99.90
14519;DHT22;7346;50.846;4.388;2022-10-19T04:51:59;12.00;99.90
14519;DHT22;7346;50.846;4.388;2022-10-19T04:54:26;12.00;99.90
14519;DHT22;7346;50.846;4.388;2022-10-19T04:56:53;12.00;99.90
14519;DHT22;7346;50.846;4.388;2022-10-19T04:59:20;12.00;99.90
14519;DHT22;7346;50.846;4.388;2022-10-19T05:01:47;12.00;99.90
14519;DHT22;7346;50.846;4.388;2022-10-19T05:04:14;12.00;99.90
14519;DHT22;7346;50.846;4.388;2022-10-19T05:06:42;11.90;99.90
14519;DHT22;7346;50.846;4.388;2022-10-19T05:09:09;11.90;99.90
14519;DHT22;7346;50.846;4.388;2022-10-19T05:11:36;11.90;99.90
14519;DHT22;7346;50.846;4.388;2022-10-19T05:14:03;11.90;99.90
14519;DHT22;7346;50.846;4.388;2022-10-19T05:16:30;11.90;99.90
14519;DHT22;7346;50.846;4.388;2022-10-19T05:18:57;11.90;99.90
14519;DHT22;7346;50.846;4.388;2022-10-19T05:21:29;12.00;99.90
14519;DHT22;7346;50.846;4.388;2022-10-19T05:24:09;12.10;99.90
14519;DHT22;7346;50.846;4.388;2022-10-19T05:26:36;12.00;99.90
14519;DHT22;7346;50.846;4.388;2022-10-19T05:29:03;12.00;99.90
14519;DHT22;7346;50.846;4.388;2022-10-19T05:31:32;11.90;99.90
14519;DHT22;7346;50.846;4.388;2022-10-19T05:33:59;11.80;99.90
14519;DHT22;7346;50.846;4.388;2022-10-19T05:36:32;11.80;99.90
14519;DHT22;7346;50.846;4.388;2022-10-19T05:39:11;11.80;99.90
14519;DHT22;7346;50.846;4.388;2022-10-19T05:41:39;11.70;99.90
14519;DHT22;7346;50.846;4.388;2022-10-19T05:44:06;11.70;99.90
14519;DHT22;7346;50.846;4.388;2022-10-19T05:46:36;11.70;99.90
14519;DHT22;7346;50.846;4.388;2022-10-19T05:49:05;11.70;99.90
14519;DHT22;7346;50.846;4.388;2022-10-19T05:51:32;11.70;99.90
14519;DHT22;7346;50.846;4.388;2022-10-19T05:53:59;11.70;99.90
14519;DHT22;7346;50.846;4.388;2022-10-19T05:56:34;11.70;99.90
14519;DHT22;7346;50.846;4.388;2022-10-19T05:59:04;11.70;99.90
14519;DHT22;7346;50.846;4.388;2022-10-19T06:01:32;11.70;99.90
14519;DHT22;7346;50.846;4.388;2022-10-19T06:04:03;11.70;99.90
14519;DHT22;7346;50.846;4.388;2022-10-19T06:06:44;11.80;99.90
14519;DHT22;7346;50.846;4.388;2022-10-19T06:09:13;11.80;99.90
14519;DHT22;7346;50.846;4.388;2022-10-19T06:11:42;11.80;99.90
14519;DHT22;7346;50.846;4.388;2022-10-19T06:14:12;11.80;99.90
14519;DHT22;7346;50.846;4.388;2022-10-19T06:16:40;11.70;99.90
14519;DHT22;7346;50.846;4.388;2022-10-19T06:19:13;11.70;99.90
14519;DHT22;7346;50.846;4.388;2022-10-19T06:21:42;11.70;99.90
14519;DHT22;7346;50.846;4.388;2022-10-19T06:24:10;11.70;99.90
14519;DHT22;7346;50.846;4.388;2022-10-19T06:26:37;11.60;99.90
14519;DHT22;7346;50.846;4.388;2022-10-19T06:29:05;11.70;99.90
14519;DHT22;7346;50.846;4.388;2022-10-19T06:31:34;11.60;99.90
14519;DHT22;7346;50.846;4.388;2022-10-19T06:34:02;11.70;99.90
14519;DHT22;7346;50.846;4.388;2022-10-19T06:36:30;11.80;99.90
14519;DHT22;7346;50.846;4.388;2022-10-19T06:38:59;11.80;99.90
14519;DHT22;7346;50.846;4.388;2022-10-19T06:41:27;11.70;99.90
14519;DHT22;7346;50.846;4.388;2022-10-19T06:43:55;11.80;99.90
14519;DHT22;7346;50.846;4.388;2022-10-19T06:46:25;11.70;99.90
14519;DHT22;7346;50.846;4.388;2022-10-19T06:48:53;11.70;99.90
14519;DHT22;7346;50.846;4.388;2022-10-19T06:51:21;11.80;99.90
14519;DHT22;7346;50.846;4.388;2022-10-19T06:53:49;11.80;99.90
14519;DHT22;7346;50.846;4.388;2022-10-19T06:56:17;11.80;99.90
14519;DHT22;7346;50.846;4.388;2022-10-19T06:58:44;11.70;99.90
14519;DHT22;7346;50.846;4.388;2022-10-19T07:01:11;11.70;99.90
14519;DHT22;7346;50.846;4.388;2022-10-19T07:03:40;11.60;99.90
14519;DHT22;7346;50.846;4.388;2022-10-19T07:06:10;11.50;99.90
14519;DHT22;7346;50.846;4.388;2022-10-19T07:08:39;11.60;99.90
14519;DHT22;7346;50.846;4.388;2022-10-19T07:11:08;11.60;99.90
14519;DHT22;7346;50.846;4.388;2022-10-19T07:13:38;11.60;99.90
14519;DHT22;7346;50.846;4.388;2022-10-19T07:16:10;11.70;99.90
14519;DHT22;7346;50.846;4.388;2022-10-19T07:18:39;11.80;99.90
14519;DHT22;7346;50.846;4.388;2022-10-19T07:21:08;11.80;99.90
14519;DHT22;7346;50.846;4.388;2022-10-19T07:23:37;11.90;99.90
14519;DHT22;7346;50.846;4.388;2022-10-19T07:26:06;12.00;99.90
14519;DHT22;7346;50.846;4.388;2022-10-19T07:28:36;12.10;99.90
14519;DHT22;7346;50.846;4.388;2022-10-19T07:31:05;12.20;99.90
14519;DHT22;7346;50.846;4.388;2022-10-19T07:33:34;12.30;99.90
14519;DHT22;7346;50.846;4.388;2022-10-19T07:36:04;12.30;99.90
14519;DHT22;7346;50.846;4.388;2022-10-19T07:38:32;12.30;99.90
14519;DHT22;7346;50.846;4.388;2022-10-19T07:41:02;12.40;99.90
14519;DHT22;7346;50.846;4.388;2022-10-19T07:43:41;12.50;99.90
14519;DHT22;7346;50.846;4.388;2022-10-19T07:46:16;12.60;99.90
14519;DHT22;7346;50.846;4.388;2022-10-19T07:48:44;12.60;99.90
14519;DHT22;7346;50.846;4.388;2022-10-19T07:51:14;12.60;99.90
14519;DHT22;7346;50.846;4.388;2022-10-19T07:53:41;12.70;99.90
14519;DHT22;7346;50.846;4.388;2022-10-19T07:56:10;12.70;99.90
14519;DHT22;7346;50.846;4.388;2022-10-19T07:58:38;12.80;99.90
14519;DHT22;7346;50.846;4.388;2022-10-19T08:01:06;12.80;99.90
14519;DHT22;7346;50.846;4.388;2022-10-19T08:03:34;12.80;99.90
14519;DHT22;7346;50.846;4.388;2022-10-19T08:06:03;12.80;99.90
14519;DHT22;7346;50.846;4.388;2022-10-19T08:08:32;12.90;99.90
14519;DHT22;7346;50.846;4.388;2022-10-19T08:11:07;12.90;99.90
14519;DHT22;7346;50.846;4.388;2022-10-19T08:13:38;13.00;99.90
14519;DHT22;7346;50.846;4.388;2022-10-19T08:16:16;13.10;99.90
14519;DHT22;7346;50.846;4.388;2022-10-19T08:18:46;13.20;99.90
14519;DHT22;7346;50.846;4.388;2022-10-19T08:21:12;13.30;99.90
14519;DHT22;7346;50.846;4.388;2022-10-19T08:23:41;13.20;99.90
14519;DHT22;7346;50.846;4.388;2022-10-19T08:26:08;13.20;99.90
14519;DHT22;7346;50.846;4.388;2022-10-19T08:28:35;13.20;99.90
14519;DHT22;7346;50.846;4.388;2022-10-19T08:31:09;13.10;99.90
14519;DHT22;7346;50.846;4.388;2022-10-19T08:33:36;13.20;99.90
14519;DHT22;7346;50.846;4.388;2022-10-19T08:36:04;13.20;99.90
14519;DHT22;7346;50.846;4.388;2022-10-19T08:38:32;13.30;99.90
14519;DHT22;7346;50.846;4.388;2022-10-19T08:41:10;13.30;99.90
14519;DHT22;7346;50.846;4.388;2022-10-19T08:43:42;13.40;99.90
14519;DHT22;7346;50.846;4.388;2022-10-19T08:46:18;13.40;99.90
14519;DHT22;7346;50.846;4.388;2022-10-19T08:48:48;13.50;99.90
14519;DHT22;7346;50.846;4.388;2022-10-19T08:51:15;13.80;99.90
14519;DHT22;7346;50.846;4.388;2022-10-19T08:53:49;14.00;99.90
14519;DHT22;7346;50.846;4.388;2022-10-19T08:56:26;14.10;99.90
14519;DHT22;7346;50.846;4.388;2022-10-19T08:59:11;14.10;99.90
14519;DHT22;7346;50.846;4.388;2022-10-19T09:01:45;14.20;99.90
14519;DHT22;7346;50.846;4.388;2022-10-19T09:04:20;14.30;99.90
14519;DHT22;7346;50.846;4.388;2022-10-19T09:06:57;14.50;99.90
14519;DHT22;7346;50.846;4.388;2022-10-19T09:09:30;14.70;99.90
14519;DHT22;7346;50.846;4.388;2022-10-19T09:12:03;14.80;99.90
14519;DHT22;7346;50.846;4.388;2022-10-19T09:14:33;14.90;99.90
14519;DHT22;7346;50.846;4.388;2022-10-19T09:17:05;14.90;99.90
14519;DHT22;7346;50.846;4.388;2022-10-19T09:19:48;14.90;99.90
14519;DHT22;7346;50.846;4.388;2022-10-19T09:22:19;15.00;99.90
14519;DHT22;7346;50.846;4.388;2022-10-19T09:24:50;15.00;99.90
14519;DHT22;7346;50.846;4.388;2022-10-19T09:27:23;15.10;99.90
14519;DHT22;7346;50.846;4.388;2022-10-19T09:29:54;15.20;99.90
14519;DHT22;7346;50.846;4.388;2022-10-19T09:32:25;15.20;99.90
14519;DHT22;7346;50.846;4.388;2022-10-19T09:34:55;15.20;99.90
14519;DHT22;7346;50.846;4.388;2022-10-19T09:37:28;15.20;99.90
14519;DHT22;7346;50.846;4.388;2022-10-19T09:39:55;15.20;99.90
14519;DHT22;7346;50.846;4.388;2022-10-19T09:42:26;15.40;99.90
14519;DHT22;7346;50.846;4.388;2022-10-19T09:44:55;15.50;99.90
14519;DHT22;7346;50.846;4.388;2022-10-19T09:47:36;15.50;99.90
14519;DHT22;7346;50.846;4.388;2022-10-19T09:50:15;15.60;99.90
14519;DHT22;7346;50.846;4.388;2022-10-19T09:52:44;15.60;99.90
14519;DHT22;7346;50.846;4.388;2022-10-19T09:55:28;15.60;99.90
14519;DHT22;7346;50.846;4.388;2022-10-19T10:00:52;15.60;99.90
14519;DHT22;7346;50.846;4.388;2022-10-19T10:03:24;15.60;99.90
14519;DHT22;7346;50.846;4.388;2022-10-19T10:05:52;15.60;99.90
14519;DHT22;7346;50.846;4.388;2022-10-19T10:08:21;15.80;99.90
14519;DHT22;7346;50.846;4.388;2022-10-19T10:10:55;15.80;99.90
14519;DHT22;7346;50.846;4.388;2022-10-19T10:13:27;15.90;99.90
14519;DHT22;7346;50.846;4.388;2022-10-19T10:16:00;16.10;99.90
14519;DHT22;7346;50.846;4.388;2022-10-19T10:18:29;16.20;99.90
14519;DHT22;7346;50.846;4.388;2022-10-19T10:20:59;16.30;99.90
14519;DHT22;7346;50.846;4.388;2022-10-19T10:23:28;16.20;99.90
14519;DHT22;7346;50.846;4.388;2022-10-19T10:25:58;16.20;99.90
14519;DHT22;7346;50.846;4.388;2022-10-19T10:28:27;16.30;99.90
14519;DHT22;7346;50.846;4.388;2022-10-19T10:30:59;16.30;99.90
14519;DHT22;7346;50.846;4.388;2022-10-19T10:33:28;16.30;99.90
14519;DHT22;7346;50.846;4.388;2022-10-19T10:36:01;16.30;99.90
14519;DHT22;7346;50.846;4.388;2022-10-19T10:38:32;16.30;99.90
14519;DHT22;7346;50.846;4.388;2022-10-19T10:41:02;16.30;99.90
14519;DHT22;7346;50.846;4.388;2022-10-19T10:43:36;16.30;99.90
14519;DHT22;7346;50.846;4.388;2022-10-19T10:46:06;16.30;99.90
14519;DHT22;7346;50.846;4.388;2022-10-19T10:48:40;16.40;99.90
14519;DHT22;7346;50.846;4.388;2022-10-19T10:51:18;16.40;99.90
14519;DHT22;7346;50.846;4.388;2022-10-19T10:53:45;16.50;99.90
14519;DHT22;7346;50.846;4.388;2022-10-19T10:56:22;16.60;99.90
14519;DHT22;7346;50.846;4.388;2022-10-19T10:58:55;16.70;99.90
14519;DHT22;7346;50.846;4.388;2022-10-19T11:01:35;16.80;99.90
14519;DHT22;7346;50.846;4.388;2022-10-19T11:04:06;16.80;99.90
14519;DHT22;7346;50.846;4.388;2022-10-19T11:06:38;16.90;99.90
14519;DHT22;7346;50.846;4.388;2022-10-19T11:09:09;16.90;99.90
14519;DHT22;7346;50.846;4.388;2022-10-19T11:11:43;16.90;99.90
14519;DHT22;7346;50.846;4.388;2022-10-19T11:14:33;17.10;99.90
14519;DHT22;7346;50.846;4.388;2022-10-19T11:17:10;17.20;99.90
14519;DHT22;7346;50.846;4.388;2022-10-19T11:19:40;17.20;99.90
14519;DHT22;7346;50.846;4.388;2022-10-19T11:22:18;17.20;99.90
14519;DHT22;7346;50.846;4.388;2022-10-19T11:24:58;17.20;99.90
14519;DHT22;7346;50.846;4.388;2022-10-19T11:27:37;17.20;99.90
14519;DHT22;7346;50.846;4.388;2022-10-19T11:30:12;17.20;99.90
14519;DHT22;7346;50.846;4.388;2022-10-19T11:32:51;17.20;99.90
14519;DHT22;7346;50.846;4.388;2022-10-19T11:38:24;17.20;99.90
14519;DHT22;7346;50.846;4.388;2022-10-19T11:40:59;17.30;99.90
14519;DHT22;7346;50.846;4.388;2022-10-19T11:43:31;17.40;99.90
14519;DHT22;7346;50.846;4.388;2022-10-19T11:46:07;17.40;99.90
14519;DHT22;7346;50.846;4.388;2022-10-19T11:48:46;17.40;99.90
14519;DHT22;7346;50.846;4.388;2022-10-19T11:51:23;17.50;99.90
14519;DHT22;7346;50.846;4.388;2022-10-19T11:54:00;17.50;99.90
14519;DHT22;7346;50.846;4.388;2022-10-19T11:56:35;17.60;99.90
14519;DHT22;7346;50.846;4.388;2022-10-19T11:59:11;17.70;99.90
14519;DHT22;7346;50.846;4.388;2022-10-19T12:01:50;17.80;99.90
14519;DHT22;7346;50.846;4.388;2022-10-19T12:04:45;17.90;99.90
14519;DHT22;7346;50.846;4.388;2022-10-19T12:07:29;18.00;99.90
14519;DHT22;7346;50.846;4.388;2022-10-19T12:10:05;18.10;99.90
14519;DHT22;7346;50.846;4.388;2022-10-19T12:12:35;18.20;99.90
14519;DHT22;7346;50.846;4.388;2022-10-19T12:15:16;18.20;99.90
14519;DHT22;7346;50.846;4.388;2022-10-19T12:17:47;18.10;99.90
14519;DHT22;7346;50.846;4.388;2022-10-19T12:20:20;18.20;99.90
14519;DHT22;7346;50.846;4.388;2022-10-19T12:22:48;18.30;99.90
14519;DHT22;7346;50.846;4.388;2022-10-19T12:25:17;18.40;99.90
14519;DHT22;7346;50.846;4.388;2022-10-19T12:27:45;18.40;99.90
14519;DHT22;7346;50.846;4.388;2022-10-19T12:30:16;18.50;99.90
14519;DHT22;7346;50.846;4.388;2022-10-19T12:32:54;18.50;99.90
14519;DHT22;7346;50.846;4.388;2022-10-19T12:38:20;18.80;99.90
14519;DHT22;7346;50.846;4.388;2022-10-19T12:40:54;19.00;99.90
14519;DHT22;7346;50.846;4.388;2022-10-19T12:43:32;19.10;99.90
14519;DHT22;7346;50.846;4.388;2022-10-19T12:46:10;19.00;99.90
14519;DHT22;7346;50.846;4.388;2022-10-19T12:48:39;19.10;99.90
14519;DHT22;7346;50.846;4.388;2022-10-19T12:51:08;19.00;99.90
14519;DHT22;7346;50.846;4.388;2022-10-19T12:53:39;19.00;99.90
14519;DHT22;7346;50.846;4.388;2022-10-19T12:56:11;18.90;99.90
14519;DHT22;7346;50.846;4.388;2022-10-19T12:58:46;18.90;99.90
14519;DHT22;7346;50.846;4.388;2022-10-19T13:01:18;18.80;99.90
14519;DHT22;7346;50.846;4.388;2022-10-19T13:03:49;18.90;99.90
14519;DHT22;7346;50.846;4.388;2022-10-19T13:06:28;18.80;99.90
14519;DHT22;7346;50.846;4.388;2022-10-19T13:08:58;18.90;99.90
14519;DHT22;7346;50.846;4.388;2022-10-19T13:11:26;18.90;99.90
14519;DHT22;7346;50.846;4.388;2022-10-19T13:13:56;19.00;99.90
14519;DHT22;7346;50.846;4.388;2022-10-19T13:16:38;18.80;99.90
14519;DHT22;7346;50.846;4.388;2022-10-19T13:19:19;18.80;99.90
14519;DHT22;7346;50.846;4.388;2022-10-19T13:24:36;18.90;99.90
14519;DHT22;7346;50.846;4.388;2022-10-19T13:27:25;18.80;99.90
14519;DHT22;7346;50.846;4.388;2022-10-19T13:29:53;18.80;99.90
14519;DHT22;7346;50.846;4.388;2022-10-19T13:32:40;18.80;99.90
14519;DHT22;7346;50.846;4.388;2022-10-19T13:35:25;18.70;99.90
14519;DHT22;7346;50.846;4.388;2022-10-19T13:38:26;18.70;99.90
14519;DHT22;7346;50.846;4.388;2022-10-19T13:41:02;18.80;99.90
14519;DHT22;7346;50.846;4.388;2022-10-19T13:43:31;18.70;99.90
14519;DHT22;7346;50.846;4.388;2022-10-19T13:46:05;18.70;99.90
14519;DHT22;7346;50.846;4.388;2022-10-19T13:51:33;18.80;99.90
14519;DHT22;7346;50.846;4.388;2022-10-19T13:54:14;18.80;99.90
14519;DHT22;7346;50.846;4.388;2022-10-19T13:56:54;18.90;99.90
14519;DHT22;7346;50.846;4.388;2022-10-19T13:59:50;18.90;99.90
14519;DHT22;7346;50.846;4.388;2022-10-19T14:05:36;18.90;99.90
14519;DHT22;7346;50.846;4.388;2022-10-19T14:08:19;18.90;99.90
14519;DHT22;7346;50.846;4.388;2022-10-19T14:10:59;18.90;99.90
14519;DHT22;7346;50.846;4.388;2022-10-19T14:13:26;19.00;99.90
14519;DHT22;7346;50.846;4.388;2022-10-19T14:15:55;19.00;99.90
14519;DHT22;7346;50.846;4.388;2022-10-19T14:18:23;19.00;99.90
14519;DHT22;7346;50.846;4.388;2022-10-19T14:20:56;19.00;99.90
14519;DHT22;7346;50.846;4.388;2022-10-19T14:23:26;18.90;99.90
14519;DHT22;7346;50.846;4.388;2022-10-19T14:25:56;18.80;99.90
14519;DHT22;7346;50.846;4.388;2022-10-19T14:28:23;18.80;99.90
14519;DHT22;7346;50.846;4.388;2022-10-19T14:30:56;18.80;99.90
14519;DHT22;7346;50.846;4.388;2022-10-19T14:33:24;18.90;99.90
14519;DHT22;7346;50.846;4.388;2022-10-19T14:35:52;18.90;99.90
14519;DHT22;7346;50.846;4.388;2022-10-19T14:38:23;19.00;99.90
14519;DHT22;7346;50.846;4.388;2022-10-19T14:40:53;18.90;99.90
14519;DHT22;7346;50.846;4.388;2022-10-19T14:43:22;18.80;99.90
14519;DHT22;7346;50.846;4.388;2022-10-19T14:46:12;18.80;99.90
14519;DHT22;7346;50.846;4.388;2022-10-19T14:48:41;18.70;99.90
14519;DHT22;7346;50.846;4.388;2022-10-19T14:51:19;18.60;99.90
14519;DHT22;7346;50.846;4.388;2022-10-19T14:53:52;18.50;99.90
14519;DHT22;7346;50.846;4.388;2022-10-19T14:56:24;18.50;99.90
14519;DHT22;7346;50.846;4.388;2022-10-19T14:58:59;18.60;99.90
14519;DHT22;7346;50.846;4.388;2022-10-19T15:01:27;18.60;99.90
14519;DHT22;7346;50.846;4.388;2022-10-19T15:03:55;18.50;99.90
14519;DHT22;7346;50.846;4.388;2022-10-19T15:06:26;18.50;99.90
14519;DHT22;7346;50.846;4.388;2022-10-19T15:08:56;18.40;99.90
14519;DHT22;7346;50.846;4.388;2022-10-19T15:11:28;18.40;99.90
14519;DHT22;7346;50.846;4.388;2022-10-19T15:14:02;18.40;99.90
14519;DHT22;7346;50.846;4.388;2022-10-19T15:16:33;18.40;99.90
14519;DHT22;7346;50.846;4.388;2022-10-19T15:19:14;18.20;99.90
14519;DHT22;7346;50.846;4.388;2022-10-19T15:21:42;18.20;99.90
14519;DHT22;7346;50.846;4.388;2022-10-19T15:24:23;18.10;99.90
14519;DHT22;7346;50.846;4.388;2022-10-19T15:26:53;18.10;99.90
14519;DHT22;7346;50.846;4.388;2022-10-19T15:29:21;18.10;99.90
14519;DHT22;7346;50.846;4.388;2022-10-19T15:31:49;18.10;99.90
14519;DHT22;7346;50.846;4.388;2022-10-19T15:34:23;18.10;99.90
14519;DHT22;7346;50.846;4.388;2022-10-19T15:36:55;18.10;99.90
14519;DHT22;7346;50.846;4.388;2022-10-19T15:39:30;18.20;99.90
14519;DHT22;7346;50.846;4.388;2022-10-19T15:42:30;18.10;99.90
14519;DHT22;7346;50.846;4.388;2022-10-19T15:44:59;18.10;99.90
14519;DHT22;7346;50.846;4.388;2022-10-19T15:47:26;18.00;99.90
14519;DHT22;7346;50.846;4.388;2022-10-19T15:49:56;18.00;99.90
14519;DHT22;7346;50.846;4.388;2022-10-19T15:52:24;17.90;99.90
14519;DHT22;7346;50.846;4.388;2022-10-19T15:54:54;17.90;99.90
14519;DHT22;7346;50.846;4.388;2022-10-19T15:57:27;17.90;99.90
14519;DHT22;7346;50.846;4.388;2022-10-19T15:59:57;17.90;99.90
14519;DHT22;7346;50.846;4.388;2022-10-19T16:02:25;17.90;99.90
14519;DHT22;7346;50.846;4.388;2022-10-19T16:04:52;17.80;99.90
14519;DHT22;7346;50.846;4.388;2022-10-19T16:07:26;17.80;99.90
14519;DHT22;7346;50.846;4.388;2022-10-19T16:09:54;17.80;99.90
14519;DHT22;7346;50.846;4.388;2022-10-19T16:12:22;17.80;99.90
14519;DHT22;7346;50.846;4.388;2022-10-19T16:14:53;17.80;99.90
14519;DHT22;7346;50.846;4.388;2022-10-19T16:17:21;17.80;99.90
14519;DHT22;7346;50.846;4.388;2022-10-19T16:19:57;17.60;99.90
14519;DHT22;7346;50.846;4.388;2022-10-19T16:22:24;17.50;99.90
14519;DHT22;7346;50.846;4.388;2022-10-19T16:24:56;17.40;99.90
14519;DHT22;7346;50.846;4.388;2022-10-19T16:27:23;17.30;99.90
14519;DHT22;7346;50.846;4.388;2022-10-19T16:29:50;17.20;99.90
14519;DHT22;7346;50.846;4.388;2022-10-19T16:32:20;17.10;99.90